Time,TemperatureF,DewpointF,PressureIn,WindDirection,WindDirectionDegrees,WindSpeedMPH,WindSpeedGustMPH,Humidity,HourlyPrecipIn,Conditions,Clouds,dailyrainin,SolarRadiationWatts/m^2,SoftwareType,DateUTC
2013-05-20 00:02:00,63.7,62.2,30.10,North,5,0.0,0.0,92,0.01,,,0.07,0.0,meteohub,2013-05-20 04:02:00,
2013-05-20 00:03:00,63.7,62.2,30.11,North,5,0.0,0.0,92,0.01,,,0.07,0.0,meteohub,2013-05-20 04:03:00,
2013-05-20 00:07:00,63.7,62.2,30.10,North,5,0.0,0.0,92,0.01,,,0.00,0.0,meteohub,2013-05-20 04:07:00,
2013-05-20 00:12:00,63.7,62.2,30.10,North,5,0.0,0.0,92,0.01,,,0.00,0.0,meteohub,2013-05-20 04:12:00,
2013-05-20 00:16:00,63.7,62.2,30.10,North,5,0.0,0.0,92,0.01,,,0.00,0.0,meteohub,2013-05-20 04:16:00,
2013-05-20 00:22:00,63.7,62.2,30.10,North,5,0.0,0.0,92,0.01,,,0.00,0.0,meteohub,2013-05-20 04:22:00,
2013-05-20 00:27:00,63.7,62.2,30.10,North,5,0.0,0.0,92,0.01,,,0.00,0.0,meteohub,2013-05-20 04:27:00,
2013-05-20 00:32:00,63.7,62.2,30.10,North,5,0.0,0.0,92,0.00,,,0.00,0.0,meteohub,2013-05-20 04:32:00,
2013-05-20 00:37:00,63.7,62.2,30.10,North,5,0.0,0.0,92,0.00,,,0.00,0.0,meteohub,2013-05-20 04:37:00,
2013-05-20 00:42:00,63.7,62.6,30.10,North,5,0.0,0.0,93,0.00,,,0.00,0.0,meteohub,2013-05-20 04:42:00,
2013-05-20 00:43:00,63.7,62.6,30.10,North,5,0.0,0.0,93,0.00,,,0.00,0.0,meteohub,2013-05-20 04:43:00,
2013-05-20 00:49:00,63.7,62.6,30.10,North,5,0.0,0.0,93,0.00,,,0.00,0.0,meteohub,2013-05-20 04:49:00,
2013-05-20 00:55:00,63.7,62.6,30.10,SSW,194,0.0,0.0,93,0.00,,,0.00,0.0,meteohub,2013-05-20 04:55:00,
2013-05-20 01:01:00,63.7,62.6,30.09,SSW,194,0.0,3.0,93,0.00,,,0.00,0.0,meteohub,2013-05-20 05:01:00,
2013-05-20 01:07:00,63.9,62.8,30.09,SSW,194,0.0,3.0,93,0.00,,,0.00,0.0,meteohub,2013-05-20 05:07:00,
2013-05-20 01:12:00,63.9,62.8,30.09,SSW,194,0.0,0.0,93,0.00,,,0.00,0.0,meteohub,2013-05-20 05:12:00,
2013-05-20 01:17:00,63.9,62.8,30.09,SSW,194,0.0,0.0,93,0.00,,,0.00,0.0,meteohub,2013-05-20 05:17:00,
2013-05-20 01:22:00,64.0,63.0,30.09,SSW,194,0.0,0.0,93,0.00,,,0.00,0.0,meteohub,2013-05-20 05:22:00,
2013-05-20 01:27:00,64.2,63.1,30.09,SSW,194,0.0,0.0,93,0.00,,,0.00,0.0,meteohub,2013-05-20 05:27:00,
2013-05-20 01:32:00,64.2,63.1,30.09,SSW,194,0.0,0.0,93,0.00,,,0.00,0.0,meteohub,2013-05-20 05:32:00,
2013-05-20 01:37:00,64.2,63.1,30.09,SSW,194,0.0,0.0,93,0.00,,,0.00,0.0,meteohub,2013-05-20 05:37:00,
2013-05-20 01:42:00,64.2,63.1,30.09,SSW,194,0.0,2.0,93,0.00,,,0.00,0.0,meteohub,2013-05-20 05:42:00,
2013-05-20 01:47:00,64.2,63.1,30.09,SSW,194,0.0,2.0,93,0.00,,,0.00,0.0,meteohub,2013-05-20 05:47:00,
2013-05-20 01:53:00,64.2,63.1,30.08,SSW,194,0.0,2.0,93,0.00,,,0.00,0.0,meteohub,2013-05-20 05:53:00,
2013-05-20 01:59:00,64.2,63.1,30.08,SSW,194,0.0,0.0,93,0.00,,,0.00,0.0,meteohub,2013-05-20 05:59:00,
2013-05-20 02:05:00,64.2,63.1,30.08,SSW,194,0.0,0.0,93,0.00,,,0.00,0.0,meteohub,2013-05-20 06:05:00,
2013-05-20 02:11:00,64.0,63.0,30.08,SSW,194,0.0,0.0,93,0.00,,,0.00,0.0,meteohub,2013-05-20 06:11:00,
2013-05-20 02:17:00,63.9,62.8,30.08,SSW,194,0.0,0.0,93,0.00,,,0.00,0.0,meteohub,2013-05-20 06:17:00,
2013-05-20 02:22:00,63.9,62.8,30.08,SSW,194,0.0,0.0,93,0.00,,,0.00,0.0,meteohub,2013-05-20 06:22:00,
2013-05-20 02:27:00,63.9,62.8,30.08,SSW,194,0.0,0.0,93,0.00,,,0.00,0.0,meteohub,2013-05-20 06:27:00,
2013-05-20 02:32:00,63.9,62.8,30.08,SSW,194,0.0,0.0,93,0.00,,,0.00,0.0,meteohub,2013-05-20 06:32:00,
2013-05-20 02:37:00,63.9,62.8,30.08,SSW,194,0.0,0.0,93,0.00,,,0.00,0.0,meteohub,2013-05-20 06:37:00,
2013-05-20 02:42:00,63.9,62.8,30.08,SSW,194,0.0,0.0,93,0.00,,,0.00,0.0,meteohub,2013-05-20 06:42:00,
2013-05-20 02:47:00,63.9,62.8,30.07,SSW,194,0.0,0.0,93,0.00,,,0.00,0.0,meteohub,2013-05-20 06:47:00,
2013-05-20 02:52:00,63.9,62.8,30.07,SSW,194,0.0,0.0,93,0.00,,,0.00,0.0,meteohub,2013-05-20 06:52:00,
2013-05-20 02:57:00,63.9,62.8,30.07,SSW,194,0.0,0.0,93,0.00,,,0.00,0.0,meteohub,2013-05-20 06:57:00,
2013-05-20 03:02:00,63.9,62.8,30.07,SSW,194,0.0,0.0,93,0.00,,,0.00,0.0,meteohub,2013-05-20 07:02:00,
2013-05-20 03:07:00,63.9,62.8,30.06,SSW,194,0.0,0.0,93,0.00,,,0.00,0.0,meteohub,2013-05-20 07:07:00,
2013-05-20 03:12:00,63.9,62.8,30.06,SSW,194,0.0,0.0,93,0.00,,,0.00,0.0,meteohub,2013-05-20 07:12:00,
2013-05-20 03:17:00,63.7,62.6,30.06,SSW,194,0.0,0.0,93,0.00,,,0.00,0.0,meteohub,2013-05-20 07:17:00,
2013-05-20 03:22:00,63.7,62.6,30.06,SSW,194,0.0,0.0,93,0.00,,,0.00,0.0,meteohub,2013-05-20 07:22:00,
2013-05-20 03:27:00,63.7,62.6,30.06,SSW,194,0.0,0.0,93,0.00,,,0.00,0.0,meteohub,2013-05-20 07:27:00,
2013-05-20 03:32:00,63.9,62.8,30.06,SSW,194,0.0,0.0,93,0.00,,,0.00,0.0,meteohub,2013-05-20 07:32:00,
2013-05-20 03:39:00,63.9,62.8,30.06,SSW,194,0.0,0.0,93,0.00,,,0.00,0.0,meteohub,2013-05-20 07:39:00,
2013-05-20 03:45:00,63.9,62.8,30.07,SSW,194,0.0,0.0,93,0.00,,,0.00,0.0,meteohub,2013-05-20 07:45:00,
2013-05-20 03:51:00,63.9,62.8,30.07,SSW,194,0.0,0.0,93,0.00,,,0.00,0.0,meteohub,2013-05-20 07:51:00,
2013-05-20 03:57:00,63.9,62.8,30.06,SSW,194,0.0,0.0,93,0.00,,,0.00,0.0,meteohub,2013-05-20 07:57:00,
2013-05-20 04:02:00,63.7,62.6,30.06,SSW,194,0.0,0.0,93,0.00,,,0.00,0.0,meteohub,2013-05-20 08:02:00,
2013-05-20 04:07:00,63.9,62.8,30.06,SSW,194,0.0,0.0,93,0.00,,,0.00,0.0,meteohub,2013-05-20 08:07:00,
2013-05-20 04:12:00,63.9,62.8,30.06,SSW,194,0.0,0.0,93,0.00,,,0.00,0.0,meteohub,2013-05-20 08:12:00,
2013-05-20 04:17:00,63.9,62.8,30.06,SSW,194,0.0,0.0,93,0.00,,,0.00,0.0,meteohub,2013-05-20 08:17:00,
2013-05-20 04:22:00,63.9,62.8,30.06,SSW,194,0.0,0.0,93,0.00,,,0.00,0.0,meteohub,2013-05-20 08:22:00,
2013-05-20 04:27:00,63.7,62.6,30.06,SSW,194,0.0,0.0,93,0.00,,,0.00,0.0,meteohub,2013-05-20 08:27:00,
2013-05-20 04:34:00,63.9,62.8,30.06,SSW,194,0.0,0.0,93,0.00,,,0.00,0.0,meteohub,2013-05-20 08:34:00,
2013-05-20 04:40:00,63.7,62.6,30.06,SSW,194,0.0,0.0,93,0.00,,,0.00,0.0,meteohub,2013-05-20 08:40:00,
2013-05-20 04:46:00,63.7,62.6,30.06,SSW,194,0.0,0.0,93,0.00,,,0.00,0.0,meteohub,2013-05-20 08:46:00,
2013-05-20 04:52:00,63.7,62.6,30.06,SSW,194,0.0,0.0,93,0.00,,,0.00,0.0,meteohub,2013-05-20 08:52:00,
2013-05-20 04:58:00,63.7,62.6,30.06,SSW,194,0.0,0.0,93,0.00,,,0.00,0.0,meteohub,2013-05-20 08:58:00,
2013-05-20 05:04:00,63.7,62.6,30.06,SSW,194,0.0,0.0,93,0.00,,,0.00,0.0,meteohub,2013-05-20 09:04:00,
2013-05-20 05:10:00,63.7,62.6,30.07,SSW,194,0.0,0.0,93,0.00,,,0.00,0.0,meteohub,2013-05-20 09:10:00,
2013-05-20 05:16:00,63.7,62.6,30.07,SSW,194,0.0,0.0,93,0.00,,,0.00,0.0,meteohub,2013-05-20 09:16:00,
2013-05-20 05:22:00,63.7,62.6,30.07,SSW,194,0.0,0.0,93,0.00,,,0.00,0.0,meteohub,2013-05-20 09:22:00,
2013-05-20 05:28:00,63.9,62.8,30.07,SSW,194,0.0,0.0,93,0.00,,,0.00,0.0,meteohub,2013-05-20 09:28:00,
2013-05-20 05:35:00,63.9,62.8,30.07,SSW,194,0.0,0.0,93,0.00,,,0.00,0.0,meteohub,2013-05-20 09:35:00,
2013-05-20 05:41:00,63.9,62.8,30.07,SSW,194,0.0,0.0,93,0.00,,,0.00,0.0,meteohub,2013-05-20 09:41:00,
2013-05-20 05:47:00,63.9,62.8,30.07,SSW,194,0.0,0.0,93,0.00,,,0.00,0.0,meteohub,2013-05-20 09:47:00,
2013-05-20 05:53:00,63.9,62.8,30.07,SSW,194,0.0,0.0,93,0.00,,,0.00,0.0,meteohub,2013-05-20 09:53:00,
2013-05-20 05:59:00,63.9,62.8,30.07,SSW,194,0.0,0.0,93,0.00,,,0.00,0.0,meteohub,2013-05-20 09:59:00,
2013-05-20 06:05:00,63.9,62.8,30.07,SSW,194,0.0,0.0,93,0.01,,,0.00,0.0,meteohub,2013-05-20 10:05:00,
2013-05-20 06:11:00,63.9,62.8,30.07,SSW,194,0.0,0.0,93,0.01,,,0.01,0.0,meteohub,2013-05-20 10:11:00,
2013-05-20 06:17:00,63.9,62.8,30.07,SSW,194,0.0,0.0,93,0.01,,,0.01,0.0,meteohub,2013-05-20 10:17:00,
2013-05-20 06:22:00,63.9,62.8,30.07,SSW,194,0.0,0.0,93,0.01,,,0.01,5.0,meteohub,2013-05-20 10:22:00,
2013-05-20 06:27:00,64.0,63.0,30.08,SSW,194,0.0,0.0,93,0.01,,,0.01,5.0,meteohub,2013-05-20 10:27:00,
2013-05-20 06:32:00,64.0,63.0,30.08,SSW,194,0.0,0.0,93,0.01,,,0.01,5.0,meteohub,2013-05-20 10:32:00,
2013-05-20 06:37:00,64.0,63.0,30.07,NW,311,0.0,0.0,93,0.01,,,0.01,7.0,meteohub,2013-05-20 10:37:00,
2013-05-20 06:42:00,64.0,63.0,30.07,NW,311,0.0,0.0,93,0.01,,,0.01,11.0,meteohub,2013-05-20 10:42:00,
2013-05-20 06:47:00,64.0,63.0,30.07,WNW,300,0.0,0.0,93,0.01,,,0.01,11.0,meteohub,2013-05-20 10:47:00,
2013-05-20 06:52:00,64.0,63.0,30.07,WNW,300,0.0,0.0,93,0.01,,,0.01,11.0,meteohub,2013-05-20 10:52:00,
2013-05-20 06:57:00,64.2,63.1,30.08,South,174,0.0,1.0,93,0.01,,,0.01,9.0,meteohub,2013-05-20 10:57:00,
2013-05-20 07:02:00,64.2,63.1,30.07,South,180,0.0,5.0,93,0.00,,,0.01,9.0,meteohub,2013-05-20 11:02:00,
2013-05-20 07:07:00,64.2,63.1,30.08,South,187,0.0,5.0,93,0.00,,,0.01,11.0,meteohub,2013-05-20 11:07:00,
2013-05-20 07:12:00,64.2,63.1,30.08,South,183,0.0,5.0,93,0.00,,,0.01,12.0,meteohub,2013-05-20 11:12:00,
2013-05-20 07:17:00,64.2,63.1,30.08,SSW,213,0.0,2.0,93,0.00,,,0.01,16.0,meteohub,2013-05-20 11:17:00,
2013-05-20 07:22:00,64.2,63.1,30.08,SW,230,0.0,1.0,93,0.00,,,0.01,14.0,meteohub,2013-05-20 11:22:00,
2013-05-20 07:27:00,64.4,63.3,30.09,South,175,0.0,0.0,93,0.00,,,0.01,19.0,meteohub,2013-05-20 11:27:00,
2013-05-20 07:32:00,64.4,63.3,30.09,South,175,0.0,0.0,93,0.00,,,0.01,23.0,meteohub,2013-05-20 11:32:00,
2013-05-20 07:37:00,64.4,63.3,30.09,South,175,0.0,0.0,93,0.00,,,0.01,30.0,meteohub,2013-05-20 11:37:00,
2013-05-20 07:42:00,64.4,63.3,30.09,South,175,0.0,0.0,93,0.00,,,0.01,33.0,meteohub,2013-05-20 11:42:00,
2013-05-20 07:47:00,64.6,63.5,30.09,South,175,0.0,0.0,93,0.00,,,0.01,33.0,meteohub,2013-05-20 11:47:00,
2013-05-20 07:52:00,64.6,63.5,30.09,South,175,0.0,0.0,93,0.00,,,0.01,26.0,meteohub,2013-05-20 11:52:00,
2013-05-20 07:57:00,64.6,63.5,30.09,South,175,0.0,0.0,93,0.00,,,0.01,30.0,meteohub,2013-05-20 11:57:00,
2013-05-20 08:02:00,64.8,63.7,30.09,South,175,0.0,0.0,93,0.00,,,0.01,32.0,meteohub,2013-05-20 12:02:00,
2013-05-20 08:07:00,64.8,63.7,30.10,South,175,0.0,0.0,93,0.00,,,0.01,67.0,meteohub,2013-05-20 12:07:00,
2013-05-20 08:12:00,64.9,63.7,30.09,South,175,0.0,0.0,93,0.00,,,0.01,70.0,meteohub,2013-05-20 12:12:00,
2013-05-20 08:17:00,65.1,63.9,30.09,South,175,0.0,0.0,93,0.00,,,0.01,84.0,meteohub,2013-05-20 12:17:00,
2013-05-20 08:22:00,65.1,63.9,30.09,South,175,0.0,0.0,93,0.00,,,0.01,79.0,meteohub,2013-05-20 12:22:00,
2013-05-20 08:27:00,65.3,64.0,30.09,South,175,0.0,0.0,93,0.00,,,0.01,67.0,meteohub,2013-05-20 12:27:00,
2013-05-20 08:32:00,65.3,64.0,30.09,South,175,0.0,0.0,93,0.00,,,0.01,63.0,meteohub,2013-05-20 12:32:00,
2013-05-20 08:37:00,65.5,64.2,30.09,South,175,0.0,0.0,93,0.00,,,0.01,72.0,meteohub,2013-05-20 12:37:00,
2013-05-20 08:42:00,65.5,64.2,30.09,South,175,0.0,0.0,93,0.00,,,0.01,74.0,meteohub,2013-05-20 12:42:00,
2013-05-20 08:47:00,65.7,64.4,30.09,South,175,0.0,0.0,93,0.00,,,0.01,81.0,meteohub,2013-05-20 12:47:00,
2013-05-20 08:52:00,65.7,64.4,30.09,SE,126,0.0,1.0,93,0.00,,,0.01,77.0,meteohub,2013-05-20 12:52:00,
2013-05-20 08:57:00,65.8,64.6,30.09,SE,126,0.0,1.0,93,0.00,,,0.01,88.0,meteohub,2013-05-20 12:57:00,
2013-05-20 09:02:00,66.0,64.8,30.10,SE,126,0.0,0.0,93,0.00,,,0.01,79.0,meteohub,2013-05-20 13:02:00,
2013-05-20 09:07:00,66.0,64.8,30.10,SE,128,0.0,1.0,93,0.00,,,0.01,100.0,meteohub,2013-05-20 13:07:00,
2013-05-20 09:12:00,66.2,64.9,30.10,SE,128,0.0,1.0,93,0.00,,,0.01,125.0,meteohub,2013-05-20 13:12:00,
2013-05-20 09:17:00,66.4,65.1,30.10,SE,128,0.0,1.0,93,0.00,,,0.01,130.0,meteohub,2013-05-20 13:17:00,
2013-05-20 09:22:00,66.6,65.7,30.10,SE,128,0.0,0.0,94,0.00,,,0.01,141.0,meteohub,2013-05-20 13:22:00,
2013-05-20 09:27:00,66.9,65.7,30.10,SE,128,1.0,0.0,93,0.00,,,0.01,162.0,meteohub,2013-05-20 13:27:00,
2013-05-20 09:32:00,67.1,65.8,30.10,SE,128,0.0,2.0,93,0.00,,,0.01,125.0,meteohub,2013-05-20 13:32:00,
2013-05-20 09:37:00,67.3,66.4,30.10,SE,128,1.0,2.0,94,0.00,,,0.01,104.0,meteohub,2013-05-20 13:37:00,
2013-05-20 09:42:00,67.3,66.0,30.10,SE,128,0.0,1.0,93,0.00,,,0.01,88.0,meteohub,2013-05-20 13:42:00,
2013-05-20 09:47:00,67.3,66.4,30.10,SE,128,0.0,1.0,94,0.00,,,0.01,102.0,meteohub,2013-05-20 13:47:00,
2013-05-20 09:52:00,67.5,66.6,30.10,SE,128,0.0,2.0,94,0.00,,,0.01,93.0,meteohub,2013-05-20 13:52:00,
2013-05-20 09:57:00,67.8,66.6,30.10,SE,128,0.0,2.0,93,0.00,,,0.01,128.0,meteohub,2013-05-20 13:57:00,
2013-05-20 10:02:00,68.0,66.7,30.10,SE,132,0.0,2.0,93,0.00,,,0.01,174.0,meteohub,2013-05-20 14:02:00,
2013-05-20 10:07:00,68.0,67.1,30.10,SE,128,0.0,2.0,94,0.00,,,0.01,199.0,meteohub,2013-05-20 14:07:00,
2013-05-20 10:12:00,68.2,67.3,30.10,SE,128,0.0,2.0,94,0.00,,,0.01,223.0,meteohub,2013-05-20 14:12:00,
2013-05-20 10:17:00,68.2,66.9,30.10,ESE,117,0.0,2.0,93,0.00,,,0.01,427.0,meteohub,2013-05-20 14:17:00,
2013-05-20 10:22:00,68.4,67.1,30.10,ESE,117,2.0,4.0,93,0.00,,,0.01,323.0,meteohub,2013-05-20 14:22:00,
2013-05-20 10:27:00,68.5,67.3,30.10,ESE,117,0.0,4.0,93,0.00,,,0.01,236.0,meteohub,2013-05-20 14:27:00,
2013-05-20 10:32:00,68.7,67.5,30.10,ESE,118,1.0,4.0,93,0.00,,,0.01,220.0,meteohub,2013-05-20 14:32:00,
2013-05-20 10:37:00,68.7,67.5,30.09,ESE,121,0.0,4.0,93,0.00,,,0.01,257.0,meteohub,2013-05-20 14:37:00,
2013-05-20 10:42:00,68.9,67.5,30.09,SE,146,0.0,4.0,92,0.00,,,0.01,285.0,meteohub,2013-05-20 14:42:00,
2013-05-20 10:47:00,69.1,67.6,30.09,SE,146,1.0,4.0,92,0.00,,,0.01,332.0,meteohub,2013-05-20 14:47:00,
2013-05-20 10:53:00,69.3,66.9,30.09,SSE,164,3.0,4.0,89,0.00,,,0.01,223.0,meteohub,2013-05-20 14:53:00,
2013-05-20 11:00:00,69.6,67.1,30.09,South,187,0.0,6.0,89,0.00,,,0.01,330.0,meteohub,2013-05-20 15:00:00,
2013-05-20 11:06:00,70.0,67.3,30.09,South,179,3.0,6.0,88,0.00,,,0.01,424.0,meteohub,2013-05-20 15:06:00,
2013-05-20 11:12:00,70.7,67.6,30.09,SSW,198,3.0,9.0,87,0.00,,,0.01,759.0,meteohub,2013-05-20 15:12:00,
2013-05-20 11:17:00,71.1,67.3,30.09,South,181,5.0,9.0,85,0.00,,,0.01,564.0,meteohub,2013-05-20 15:17:00,
2013-05-20 11:22:00,71.4,67.6,30.09,ESE,119,0.0,8.0,85,0.00,,,0.01,436.0,meteohub,2013-05-20 15:22:00,
2013-05-20 11:27:00,71.6,67.8,30.08,SSE,149,2.0,8.0,85,0.00,,,0.01,536.0,meteohub,2013-05-20 15:27:00,
2013-05-20 11:33:00,72.0,67.8,30.08,WSW,246,1.0,7.0,84,0.00,,,0.01,390.0,meteohub,2013-05-20 15:33:00,
2013-05-20 11:39:00,72.0,67.5,30.08,ESE,119,3.0,6.0,83,0.00,,,0.01,366.0,meteohub,2013-05-20 15:39:00,
2013-05-20 11:45:00,71.8,67.3,30.08,South,180,1.0,9.0,83,0.00,,,0.01,341.0,meteohub,2013-05-20 15:45:00,
2013-05-20 11:51:00,72.0,67.5,30.08,SSE,155,4.0,9.0,83,0.00,,,0.01,343.0,meteohub,2013-05-20 15:51:00,
2013-05-20 11:57:00,72.0,67.5,30.08,North,355,0.0,7.0,83,0.00,,,0.01,434.0,meteohub,2013-05-20 15:57:00,
2013-05-20 12:03:00,72.1,67.1,30.08,SSE,162,3.0,5.0,81,0.00,,,0.01,503.0,meteohub,2013-05-20 16:03:00,
2013-05-20 12:10:00,72.5,67.6,30.08,East,80,3.0,10.0,82,0.00,,,0.01,663.0,meteohub,2013-05-20 16:10:00,
2013-05-20 12:16:00,73.0,67.6,30.08,SW,229,1.0,10.0,80,0.00,,,0.01,643.0,meteohub,2013-05-20 16:16:00,
2013-05-20 12:22:00,73.6,68.0,30.07,SW,222,2.0,10.0,80,0.00,,,0.01,417.0,meteohub,2013-05-20 16:22:00,
2013-05-20 12:27:00,73.8,67.8,30.07,NW,315,0.0,7.0,79,0.00,,,0.01,359.0,meteohub,2013-05-20 16:27:00,
2013-05-20 12:32:00,73.8,67.6,30.07,SSE,161,3.0,7.0,78,0.00,,,0.01,320.0,meteohub,2013-05-20 16:32:00,
2013-05-20 12:37:00,73.8,67.8,30.07,ESE,121,4.0,5.0,79,0.00,,,0.01,369.0,meteohub,2013-05-20 16:37:00,
2013-05-20 12:42:00,73.6,67.5,30.07,West,259,3.0,7.0,78,0.00,,,0.01,434.0,meteohub,2013-05-20 16:42:00,
2013-05-20 12:47:00,73.6,67.5,30.07,SSW,194,0.0,8.0,78,0.00,,,0.01,575.0,meteohub,2013-05-20 16:47:00,
2013-05-20 12:52:00,73.8,67.8,30.06,NW,306,5.0,8.0,79,0.00,,,0.01,1160.0,meteohub,2013-05-20 16:52:00,
2013-05-20 12:57:00,74.3,67.6,30.06,SW,218,2.0,9.0,77,0.00,,,0.01,1143.0,meteohub,2013-05-20 16:57:00,
2013-05-20 13:02:00,75.0,68.0,30.06,South,182,2.0,9.0,76,0.00,,,0.01,1199.0,meteohub,2013-05-20 17:02:00,
2013-05-20 13:07:00,75.2,68.2,30.06,SW,225,2.0,9.0,76,0.00,,,0.01,1111.0,meteohub,2013-05-20 17:07:00,
2013-05-20 13:12:00,75.4,68.4,30.05,SE,132,8.0,11.0,76,0.00,,,0.01,1048.0,meteohub,2013-05-20 17:12:00,
2013-05-20 13:17:00,75.6,67.1,30.06,SSW,213,10.0,11.0,72,0.00,,,0.01,1051.0,meteohub,2013-05-20 17:17:00,
2013-05-20 13:22:00,75.4,67.6,30.05,South,171,4.0,12.0,74,0.00,,,0.01,1067.0,meteohub,2013-05-20 17:22:00,
2013-05-20 13:27:00,75.7,67.3,30.05,WNW,286,4.0,12.0,72,0.00,,,0.01,979.0,meteohub,2013-05-20 17:27:00,
2013-05-20 13:35:00,76.3,67.8,30.05,South,171,0.0,12.0,72,0.00,,,0.01,1090.0,meteohub,2013-05-20 17:35:00,
2013-05-20 13:41:00,77.0,68.5,30.04,South,170,2.0,10.0,72,0.00,,,0.01,1083.0,meteohub,2013-05-20 17:41:00,
2013-05-20 13:47:00,77.4,67.6,30.04,WNW,294,3.0,7.0,69,0.00,,,0.01,1181.0,meteohub,2013-05-20 17:47:00,
2013-05-20 13:52:00,77.4,68.0,30.04,SSW,208,5.0,10.0,70,0.00,,,0.01,1116.0,meteohub,2013-05-20 17:52:00,
2013-05-20 13:57:00,77.7,68.4,30.03,NNE,31,1.0,10.0,70,0.00,,,0.01,1178.0,meteohub,2013-05-20 17:57:00,
2013-05-20 14:02:00,77.9,68.5,30.04,SE,133,4.0,10.0,70,0.00,,,0.01,352.0,meteohub,2013-05-20 18:02:00,
2013-05-20 14:07:00,77.9,68.9,30.03,SE,140,6.0,6.0,71,0.00,,,0.01,397.0,meteohub,2013-05-20 18:07:00,
2013-05-20 14:12:00,78.3,68.0,30.03,WNW,302,0.0,6.0,68,0.00,,,0.01,1085.0,meteohub,2013-05-20 18:12:00,
2013-05-20 14:17:00,78.8,68.5,30.02,ESE,123,3.0,6.0,68,0.00,,,0.01,1025.0,meteohub,2013-05-20 18:17:00,
2013-05-20 14:22:00,79.5,69.3,30.03,SSW,213,0.0,6.0,68,0.00,,,0.01,1078.0,meteohub,2013-05-20 18:22:00,
2013-05-20 14:27:00,79.7,69.1,30.03,South,183,0.0,6.0,67,0.00,,,0.01,1051.0,meteohub,2013-05-20 18:27:00,
2013-05-20 14:32:00,80.1,68.5,30.02,SE,128,6.0,6.0,65,0.00,,,0.01,1062.0,meteohub,2013-05-20 18:32:00,
2013-05-20 14:37:00,80.4,68.9,30.02,SSE,161,2.0,9.0,65,0.00,,,0.01,1078.0,meteohub,2013-05-20 18:37:00,
2013-05-20 14:42:00,80.6,68.5,30.02,ESE,114,3.0,9.0,64,0.00,,,0.01,872.0,meteohub,2013-05-20 18:42:00,
2013-05-20 14:47:00,80.4,68.0,30.02,WNW,287,3.0,9.0,63,0.00,,,0.01,311.0,meteohub,2013-05-20 18:47:00,
2013-05-20 14:52:00,80.2,68.2,30.02,East,95,2.0,7.0,64,0.00,,,0.01,1035.0,meteohub,2013-05-20 18:52:00,
2013-05-20 14:57:00,80.8,69.6,30.02,SE,124,2.0,6.0,66,0.00,,,0.01,1072.0,meteohub,2013-05-20 18:57:00,
2013-05-20 15:02:00,81.1,70.0,30.01,South,188,6.0,6.0,66,0.00,,,0.01,1021.0,meteohub,2013-05-20 19:02:00,
2013-05-20 15:07:00,80.8,68.4,30.01,SSW,195,0.0,7.0,63,0.00,,,0.01,1021.0,meteohub,2013-05-20 19:07:00,
2013-05-20 15:12:00,80.6,68.5,30.01,ESE,121,6.0,7.0,64,0.00,,,0.01,1009.0,meteohub,2013-05-20 19:12:00,
2013-05-20 15:17:00,80.4,69.3,30.01,East,86,3.0,9.0,66,0.00,,,0.01,916.0,meteohub,2013-05-20 19:17:00,
2013-05-20 15:22:00,80.1,68.9,30.01,SE,130,5.0,10.0,66,0.00,,,0.01,380.0,meteohub,2013-05-20 19:22:00,
2013-05-20 15:27:00,79.9,68.4,30.01,ESE,120,4.0,10.0,65,0.00,,,0.01,237.0,meteohub,2013-05-20 19:27:00,
2013-05-20 15:32:00,79.9,68.4,30.01,East,88,6.0,8.0,65,0.00,,,0.01,900.0,meteohub,2013-05-20 19:32:00,
2013-05-20 15:37:00,79.9,68.0,30.01,SE,132,4.0,7.0,64,0.00,,,0.01,840.0,meteohub,2013-05-20 19:37:00,
2013-05-20 15:42:00,79.9,68.4,30.01,South,187,9.0,9.0,65,0.00,,,0.01,842.0,meteohub,2013-05-20 19:42:00,
2013-05-20 15:47:00,80.4,68.4,30.01,South,181,0.0,10.0,64,0.00,,,0.01,831.0,meteohub,2013-05-20 19:47:00,
2013-05-20 15:52:00,81.0,69.4,30.01,SE,145,6.0,10.0,65,0.00,,,0.01,807.0,meteohub,2013-05-20 19:52:00,
2013-05-20 15:57:00,81.5,67.6,30.00,South,178,1.0,10.0,60,0.00,,,0.01,795.0,meteohub,2013-05-20 19:57:00,
2013-05-20 16:03:00,82.0,69.1,30.00,ENE,67,1.0,7.0,62,0.00,,,0.01,766.0,meteohub,2013-05-20 20:03:00,
2013-05-20 16:09:00,82.4,68.5,30.00,SSE,162,4.0,7.0,60,0.00,,,0.01,795.0,meteohub,2013-05-20 20:09:00,
2013-05-20 16:15:00,81.9,67.5,30.00,SW,218,2.0,9.0,59,0.00,,,0.01,728.0,meteohub,2013-05-20 20:15:00,
2013-05-20 16:22:00,81.5,68.5,29.99,ESE,106,4.0,9.0,62,0.00,,,0.01,698.0,meteohub,2013-05-20 20:22:00,
2013-05-20 16:27:00,81.7,68.4,29.99,ESE,117,5.0,6.0,61,0.00,,,0.01,673.0,meteohub,2013-05-20 20:27:00,
2013-05-20 16:34:00,81.1,68.7,29.99,SSE,157,0.0,6.0,63,0.00,,,0.01,684.0,meteohub,2013-05-20 20:34:00,
2013-05-20 16:40:00,81.1,67.3,29.99,ESE,120,5.0,8.0,60,0.00,,,0.01,708.0,meteohub,2013-05-20 20:40:00,
2013-05-20 16:46:00,81.3,68.4,29.98,South,180,4.0,10.0,62,0.00,,,0.01,654.0,meteohub,2013-05-20 20:46:00,
2013-05-20 16:52:00,81.5,68.2,29.98,SSE,157,3.0,10.0,61,0.00,,,0.01,684.0,meteohub,2013-05-20 20:52:00,
2013-05-20 16:57:00,81.3,68.0,29.98,South,171,5.0,10.0,61,0.00,,,0.01,156.0,meteohub,2013-05-20 20:57:00,
2013-05-20 17:02:00,81.0,67.1,29.98,ESE,106,3.0,9.0,60,0.00,,,0.01,501.0,meteohub,2013-05-20 21:02:00,
2013-05-20 17:07:00,81.1,67.3,29.98,East,86,4.0,8.0,60,0.00,,,0.01,538.0,meteohub,2013-05-20 21:07:00,
2013-05-20 17:12:00,81.0,66.2,29.98,ESE,109,4.0,6.0,58,0.00,,,0.01,561.0,meteohub,2013-05-20 21:12:00,
2013-05-20 17:17:00,81.0,67.6,29.98,SSE,155,2.0,6.0,61,0.00,,,0.01,462.0,meteohub,2013-05-20 21:17:00,
2013-05-20 17:22:00,81.3,68.0,29.99,SE,131,2.0,6.0,61,0.00,,,0.01,408.0,meteohub,2013-05-20 21:22:00,
2013-05-20 17:27:00,81.3,68.0,29.99,South,184,2.0,9.0,61,0.00,,,0.01,316.0,meteohub,2013-05-20 21:27:00,
2013-05-20 17:32:00,81.1,68.2,29.99,SE,133,0.0,9.0,62,0.00,,,0.01,406.0,meteohub,2013-05-20 21:32:00,
2013-05-20 17:37:00,81.1,67.8,29.99,WSW,254,3.0,5.0,61,0.00,,,0.01,397.0,meteohub,2013-05-20 21:37:00,
2013-05-20 17:42:00,81.1,67.8,29.99,SSW,196,5.0,8.0,61,0.00,,,0.01,489.0,meteohub,2013-05-20 21:42:00,
2013-05-20 17:47:00,81.3,68.4,29.99,SSE,148,3.0,8.0,62,0.00,,,0.01,466.0,meteohub,2013-05-20 21:47:00,
2013-05-20 17:52:00,81.5,68.5,30.00,South,183,4.0,6.0,62,0.00,,,0.01,142.0,meteohub,2013-05-20 21:52:00,
2013-05-20 17:57:00,81.0,67.6,30.00,SSW,200,4.0,6.0,61,0.00,,,0.01,72.0,meteohub,2013-05-20 21:57:00,
2013-05-20 18:02:00,80.6,68.2,30.00,SSE,155,0.0,5.0,63,0.00,,,0.01,56.0,meteohub,2013-05-20 22:02:00,
2013-05-20 18:07:00,80.2,68.2,30.00,NE,37,1.0,5.0,64,0.00,,,0.01,60.0,meteohub,2013-05-20 22:07:00,
2013-05-20 18:12:00,79.9,69.3,30.00,SE,124,7.0,7.0,67,0.00,,,0.01,69.0,meteohub,2013-05-20 22:12:00,
2013-05-20 18:17:00,79.0,69.6,30.00,SE,140,4.0,7.0,70,0.00,,,0.01,72.0,meteohub,2013-05-20 22:17:00,
2013-05-20 18:22:00,78.6,69.6,30.00,WSW,254,5.0,7.0,71,0.00,,,0.01,77.0,meteohub,2013-05-20 22:22:00,
2013-05-20 18:27:00,77.9,69.3,30.00,SE,132,0.0,7.0,72,0.00,,,0.01,79.0,meteohub,2013-05-20 22:27:00,
2013-05-20 18:32:00,77.5,69.4,30.01,ESE,120,3.0,7.0,73,0.00,,,0.01,79.0,meteohub,2013-05-20 22:32:00,
2013-05-20 18:37:00,77.2,69.1,30.01,SE,126,0.0,7.0,73,0.00,,,0.01,74.0,meteohub,2013-05-20 22:37:00,
2013-05-20 18:42:00,77.0,70.0,30.01,ESE,114,0.0,7.0,76,0.00,,,0.01,74.0,meteohub,2013-05-20 22:42:00,
2013-05-20 18:48:00,76.6,69.3,30.01,ESE,114,0.0,4.0,75,0.00,,,0.01,70.0,meteohub,2013-05-20 22:48:00,
2013-05-20 18:54:00,76.5,70.2,30.01,ESE,115,0.0,2.0,78,0.00,,,0.01,58.0,meteohub,2013-05-20 22:54:00,
2013-05-20 19:00:00,76.1,69.4,30.01,ESE,115,0.0,2.0,77,0.00,,,0.01,46.0,meteohub,2013-05-20 23:00:00,
2013-05-20 19:06:00,75.9,70.0,30.01,ESE,115,0.0,2.0,79,0.00,,,0.01,35.0,meteohub,2013-05-20 23:06:00,
2013-05-20 19:12:00,75.7,70.2,30.01,ESE,115,0.0,2.0,80,0.00,,,0.01,30.0,meteohub,2013-05-20 23:12:00,
2013-05-20 19:17:00,75.4,69.8,30.01,ESE,117,2.0,2.0,80,0.00,,,0.01,23.0,meteohub,2013-05-20 23:17:00,
2013-05-20 19:22:00,75.0,69.8,30.02,ESE,117,0.0,3.0,81,0.00,,,0.01,28.0,meteohub,2013-05-20 23:22:00,
2013-05-20 19:27:00,74.7,69.8,30.02,ESE,117,1.0,3.0,82,0.00,,,0.01,25.0,meteohub,2013-05-20 23:27:00,
2013-05-20 19:32:00,74.3,69.4,30.02,SSE,157,0.0,3.0,82,0.00,,,0.01,14.0,meteohub,2013-05-20 23:32:00,
2013-05-20 19:37:00,73.8,69.3,30.01,SSE,159,0.0,3.0,83,0.00,,,0.01,12.0,meteohub,2013-05-20 23:37:00,
2013-05-20 19:42:00,73.6,69.4,30.01,SSE,159,1.0,3.0,84,0.00,,,0.01,25.0,meteohub,2013-05-20 23:42:00,
2013-05-20 19:47:00,73.4,69.3,30.01,SSE,159,0.0,2.0,84,0.00,,,0.01,14.0,meteohub,2013-05-20 23:47:00,
2013-05-20 19:52:00,72.9,67.5,30.01,North,0,0.0,4.0,80,0.00,,,0.01,16.0,meteohub,2013-05-20 23:52:00,
2013-05-20 19:57:00,72.7,67.6,30.00,East,91,2.0,4.0,81,0.00,,,0.01,21.0,meteohub,2013-05-20 23:57:00,
2013-05-20 20:02:00,72.7,67.8,30.00,East,91,0.0,4.0,82,0.00,,,0.01,18.0,meteohub,2013-05-21 00:02:00,
2013-05-20 20:07:00,72.5,67.6,29.99,East,91,0.0,4.0,82,0.00,,,0.01,14.0,meteohub,2013-05-21 00:07:00,
2013-05-20 20:12:00,72.1,67.5,29.99,East,91,0.0,4.0,82,0.00,,,0.01,9.0,meteohub,2013-05-21 00:12:00,
2013-05-20 20:17:00,72.0,67.5,29.99,East,91,0.0,0.0,83,0.00,,,0.01,7.0,meteohub,2013-05-21 00:17:00,
2013-05-20 20:22:00,71.6,67.5,29.99,East,91,0.0,0.0,84,0.00,,,0.01,5.0,meteohub,2013-05-21 00:22:00,
2013-05-20 20:27:00,71.4,67.3,29.99,East,91,0.0,0.0,84,0.00,,,0.01,0.0,meteohub,2013-05-21 00:27:00,
2013-05-20 20:32:00,71.1,66.9,29.99,East,91,1.0,0.0,84,0.00,,,0.01,0.0,meteohub,2013-05-21 00:32:00,
2013-05-20 20:37:00,70.7,66.9,29.99,East,91,1.0,2.0,85,0.00,,,0.01,0.0,meteohub,2013-05-21 00:37:00,
2013-05-20 20:42:00,70.2,66.7,29.99,East,90,3.0,3.0,86,0.00,,,0.01,0.0,meteohub,2013-05-21 00:42:00,
2013-05-20 20:47:00,69.6,66.2,29.99,East,90,0.0,3.0,86,0.00,,,0.01,0.0,meteohub,2013-05-21 00:47:00,
2013-05-20 20:52:00,69.3,66.2,29.99,East,83,0.0,3.0,87,0.00,,,0.01,0.0,meteohub,2013-05-21 00:52:00,
2013-05-20 20:57:00,69.1,66.4,29.99,East,83,0.0,3.0,88,0.00,,,0.01,0.0,meteohub,2013-05-21 00:57:00,
2013-05-20 21:02:00,68.9,66.2,29.99,East,83,0.0,3.0,88,0.00,,,0.01,0.0,meteohub,2013-05-21 01:02:00,
2013-05-20 21:07:00,68.9,66.2,29.99,East,83,0.0,2.0,88,0.00,,,0.01,0.0,meteohub,2013-05-21 01:07:00,
2013-05-20 21:12:00,68.7,66.0,29.99,East,83,0.0,2.0,88,0.00,,,0.01,0.0,meteohub,2013-05-21 01:12:00,
2013-05-20 21:17:00,68.4,65.7,29.99,East,83,0.0,2.0,88,0.00,,,0.01,0.0,meteohub,2013-05-21 01:17:00,
2013-05-20 21:22:00,68.4,66.0,29.99,East,83,0.0,2.0,89,0.00,,,0.01,0.0,meteohub,2013-05-21 01:22:00,
2013-05-20 21:27:00,68.2,65.8,29.99,East,83,0.0,2.0,89,0.00,,,0.01,0.0,meteohub,2013-05-21 01:27:00,
2013-05-20 21:32:00,68.0,65.7,30.00,East,82,0.0,3.0,89,0.00,,,0.01,0.0,meteohub,2013-05-21 01:32:00,
2013-05-20 21:37:00,67.8,65.5,30.01,East,82,2.0,3.0,89,0.00,,,0.01,0.0,meteohub,2013-05-21 01:37:00,
2013-05-20 21:42:00,67.5,65.3,30.01,West,280,0.0,3.0,90,0.00,,,0.01,0.0,meteohub,2013-05-21 01:42:00,
2013-05-20 21:47:00,67.5,65.3,30.01,West,280,0.0,4.0,90,0.00,,,0.01,0.0,meteohub,2013-05-21 01:47:00,
2013-05-20 21:53:00,67.5,65.3,30.01,West,280,0.0,4.0,90,0.00,,,0.01,0.0,meteohub,2013-05-21 01:53:00,
2013-05-20 21:59:00,67.5,65.3,30.02,West,280,0.0,4.0,90,0.00,,,0.01,0.0,meteohub,2013-05-21 01:59:00,
2013-05-20 22:05:00,67.3,65.1,30.02,West,280,0.0,1.0,90,0.00,,,0.01,0.0,meteohub,2013-05-21 02:05:00,
2013-05-20 22:11:00,67.3,65.1,30.02,West,280,0.0,2.0,90,0.00,,,0.01,0.0,meteohub,2013-05-21 02:11:00,
2013-05-20 22:17:00,67.3,65.1,30.02,West,280,0.0,2.0,90,0.00,,,0.01,0.0,meteohub,2013-05-21 02:17:00,
2013-05-20 22:22:00,67.1,64.9,30.01,West,280,2.0,2.0,90,0.00,,,0.01,0.0,meteohub,2013-05-21 02:22:00,
2013-05-20 22:27:00,67.1,64.9,30.01,West,280,0.0,2.0,90,0.00,,,0.01,0.0,meteohub,2013-05-21 02:27:00,
2013-05-20 22:32:00,67.1,64.9,30.01,West,280,0.0,2.0,90,0.00,,,0.01,0.0,meteohub,2013-05-21 02:32:00,
2013-05-20 22:37:00,67.1,64.9,30.01,West,280,0.0,2.0,90,0.00,,,0.01,0.0,meteohub,2013-05-21 02:37:00,
2013-05-20 22:42:00,67.1,64.9,30.02,West,280,0.0,2.0,90,0.00,,,0.01,0.0,meteohub,2013-05-21 02:42:00,
2013-05-20 22:47:00,66.9,64.8,30.01,West,280,1.0,2.0,90,0.00,,,0.01,0.0,meteohub,2013-05-21 02:47:00,
2013-05-20 22:54:00,66.6,64.4,30.01,West,280,0.0,2.0,90,0.00,,,0.01,0.0,meteohub,2013-05-21 02:54:00,
2013-05-20 23:00:00,66.6,64.4,30.00,West,280,0.0,2.0,90,0.00,,,0.01,0.0,meteohub,2013-05-21 03:00:00,
2013-05-20 23:06:00,66.4,64.2,30.00,West,280,0.0,1.0,90,0.00,,,0.01,0.0,meteohub,2013-05-21 03:06:00,
2013-05-20 23:12:00,66.2,64.0,30.00,West,280,0.0,0.0,90,0.00,,,0.01,0.0,meteohub,2013-05-21 03:12:00,
2013-05-20 23:17:00,66.2,64.0,30.00,West,280,0.0,0.0,90,0.00,,,0.01,0.0,meteohub,2013-05-21 03:17:00,
2013-05-20 23:22:00,66.0,63.9,29.99,West,280,0.0,0.0,90,0.00,,,0.01,0.0,meteohub,2013-05-21 03:22:00,
2013-05-20 23:27:00,65.8,63.7,30.00,West,280,0.0,0.0,90,0.00,,,0.01,0.0,meteohub,2013-05-21 03:27:00,
2013-05-20 23:32:00,65.7,63.5,30.00,West,280,0.0,0.0,90,0.00,,,0.01,0.0,meteohub,2013-05-21 03:32:00,
2013-05-20 23:37:00,65.5,63.3,29.99,West,280,0.0,0.0,90,0.00,,,0.01,0.0,meteohub,2013-05-21 03:37:00,
2013-05-20 23:42:00,65.3,63.1,29.99,West,280,0.0,0.0,90,0.00,,,0.01,0.0,meteohub,2013-05-21 03:42:00,
2013-05-20 23:47:00,65.1,63.0,29.99,West,280,0.0,0.0,90,0.00,,,0.01,0.0,meteohub,2013-05-21 03:47:00,
2013-05-20 23:52:00,65.1,63.3,29.99,West,280,0.0,0.0,91,0.00,,,0.01,0.0,meteohub,2013-05-21 03:52:00,
2013-05-20 23:57:00,64.9,63.1,29.99,West,280,0.0,0.0,91,0.00,,,0.01,0.0,meteohub,2013-05-21 03:57:00,